Harbine, Nebraska
Current Conditions -  °F | °C
As of 8:35 PM on Tuesday 21 Oct 2014 (Local Time) from KBIE Reporting Station
Clear Clear  
Wind Chill: 60°   Ceiling: Unl
Heat Index: 60°   Visibility: 10mi
Dew Point: 42°   Wind: 5mph
Humidity: 52%   Direction: 110°ESE
Pressure: 30.03"   Gusts: NA
Location:  40.219°N, 97.0292°W
Report Text: KBIE 220135Z AUTO 11004KT 10SM CLR 16/06 A3003 RMK AO2 T01550056
Loading
Personal Weather Stations






























Interactive Weather Map New forecast layout! Learn more

10-Day Weather Forecast

Advertisements
Track Severe Weather on mobile